createdAt,value
2022-11-21T00:00:50.694Z,99.90
2022-11-21T00:03:18.048Z,99.90
2022-11-21T00:05:46.809Z,99.90
2022-11-21T00:08:15.684Z,99.90
2022-11-21T00:10:43.196Z,99.90
2022-11-21T00:13:15.511Z,99.90
2022-11-21T00:15:42.918Z,99.90
2022-11-21T00:18:11.696Z,99.90
2022-11-21T00:20:39.671Z,99.90
2022-11-21T00:23:07.070Z,99.90
2022-11-21T00:25:34.396Z,99.90
2022-11-21T00:28:01.774Z,99.90
2022-11-21T00:30:29.385Z,99.90
2022-11-21T00:32:58.742Z,99.90
2022-11-21T00:35:26.278Z,99.90
2022-11-21T00:37:53.560Z,99.90
2022-11-21T00:40:20.894Z,99.90
2022-11-21T00:42:48.245Z,99.90
2022-11-21T00:45:19.620Z,99.90
2022-11-21T00:47:50.147Z,99.90
2022-11-21T00:50:17.522Z,99.90
2022-11-21T00:52:44.832Z,99.90
2022-11-21T00:55:12.118Z,99.90
2022-11-21T00:57:39.427Z,99.90
2022-11-21T01:00:07.266Z,99.90
2022-11-21T01:02:34.658Z,99.90
2022-11-21T01:05:02.015Z,99.90
2022-11-21T01:07:29.398Z,99.90
2022-11-21T01:09:56.741Z,99.90
2022-11-21T01:12:24.166Z,99.90
2022-11-21T01:14:51.478Z,99.90
2022-11-21T01:17:18.873Z,99.90
2022-11-21T01:19:46.187Z,99.90
2022-11-21T01:22:13.536Z,99.90
2022-11-21T01:24:40.832Z,99.90
2022-11-21T01:27:08.120Z,99.90
2022-11-21T01:29:35.474Z,99.90
2022-11-21T01:32:02.758Z,99.90
2022-11-21T01:34:30.107Z,99.90
2022-11-21T01:36:57.461Z,99.90
2022-11-21T01:39:24.803Z,99.90
2022-11-21T01:41:52.154Z,99.90
2022-11-21T01:44:20.426Z,99.90
2022-11-21T01:46:48.239Z,99.90
2022-11-21T01:49:20.255Z,99.90
2022-11-21T01:52:03.433Z,99.90
2022-11-21T01:54:43.197Z,99.90
2022-11-21T01:57:19.846Z,99.90
2022-11-21T01:59:53.370Z,99.90
2022-11-21T02:02:22.383Z,99.90
2022-11-21T02:04:49.918Z,99.90
2022-11-21T02:07:18.296Z,99.90
2022-11-21T02:09:46.511Z,99.90
2022-11-21T02:12:23.664Z,99.90
2022-11-21T02:14:51.049Z,99.90
2022-11-21T02:17:18.521Z,99.90
2022-11-21T02:19:51.905Z,99.90
2022-11-21T02:22:25.340Z,99.90
2022-11-21T02:25:19.524Z,99.90
2022-11-21T02:27:47.261Z,99.90
2022-11-21T02:30:14.657Z,99.90
2022-11-21T02:32:47.402Z,99.90
2022-11-21T02:35:16.067Z,99.90
2022-11-21T02:37:44.623Z,99.90
2022-11-21T02:40:15.103Z,99.90
2022-11-21T02:42:50.087Z,99.90
2022-11-21T02:45:45.590Z,99.90
2022-11-21T02:48:13.198Z,99.90
2022-11-21T02:50:42.060Z,99.90
2022-11-21T02:53:11.087Z,99.90
2022-11-21T02:55:38.401Z,99.90
2022-11-21T02:58:06.085Z,99.90
2022-11-21T03:00:34.201Z,99.90
2022-11-21T03:03:01.519Z,99.90
2022-11-21T03:05:28.913Z,99.90
2022-11-21T03:07:56.326Z,99.90
2022-11-21T03:10:23.633Z,99.90
2022-11-21T03:12:50.905Z,99.90
2022-11-21T03:15:18.305Z,99.90
2022-11-21T03:17:48.408Z,99.90
2022-11-21T03:20:15.841Z,99.90
2022-11-21T03:22:43.125Z,99.90
2022-11-21T03:25:10.448Z,99.90
2022-11-21T03:27:37.747Z,99.90
2022-11-21T03:30:05.638Z,99.90
2022-11-21T03:32:32.928Z,99.90
2022-11-21T03:35:00.463Z,99.90
2022-11-21T03:37:28.147Z,99.90
2022-11-21T03:39:55.415Z,99.90
2022-11-21T03:42:22.784Z,99.90
2022-11-21T03:44:50.105Z,99.90
2022-11-21T03:47:17.526Z,99.90
2022-11-21T03:49:44.936Z,99.90
2022-11-21T03:52:12.254Z,99.90
2022-11-21T03:54:39.533Z,99.90
2022-11-21T03:57:06.889Z,99.90
2022-11-21T03:59:34.209Z,99.90
2022-11-21T04:02:01.612Z,99.90
2022-11-21T04:04:29.307Z,99.90
2022-11-21T04:06:56.797Z,99.90
2022-11-21T04:09:24.088Z,99.90
2022-11-21T04:11:51.346Z,99.90
2022-11-21T04:14:18.646Z,99.90
2022-11-21T04:16:45.917Z,99.90
2022-11-21T04:19:13.215Z,99.90
2022-11-21T04:21:40.522Z,99.90
2022-11-21T04:24:08.171Z,99.90
2022-11-21T04:26:35.454Z,99.90
2022-11-21T04:29:02.787Z,99.90
2022-11-21T04:31:30.081Z,99.90
2022-11-21T04:33:57.347Z,99.90
2022-11-21T04:36:24.761Z,99.90
2022-11-21T04:38:52.103Z,99.90
2022-11-21T04:41:19.370Z,99.90
2022-11-21T04:43:46.641Z,99.90
2022-11-21T04:46:13.972Z,99.90
2022-11-21T04:48:41.250Z,99.90
2022-11-21T04:51:08.635Z,99.90
2022-11-21T04:53:39.986Z,99.90
2022-11-21T04:56:10.212Z,99.90
2022-11-21T04:58:37.532Z,99.90
2022-11-21T05:01:08.880Z,99.90
2022-11-21T05:03:36.475Z,99.90
2022-11-21T05:06:03.845Z,99.90
2022-11-21T05:08:31.605Z,99.90
2022-11-21T05:11:17.311Z,99.90
2022-11-21T05:13:44.632Z,99.90
2022-11-21T05:16:11.981Z,99.90
2022-11-21T05:18:39.268Z,99.90
2022-11-21T05:21:06.570Z,99.90
2022-11-21T05:23:33.875Z,99.90
2022-11-21T05:26:01.146Z,99.90
2022-11-21T05:28:28.465Z,99.90
2022-11-21T05:30:55.755Z,99.90
2022-11-21T05:33:23.110Z,99.90
2022-11-21T05:35:50.385Z,99.90
2022-11-21T05:38:17.725Z,99.90
2022-11-21T05:40:45.015Z,99.90
2022-11-21T05:43:31.186Z,99.90
2022-11-21T05:45:58.498Z,99.90
2022-11-21T05:48:25.957Z,99.90
2022-11-21T05:50:53.261Z,99.90
2022-11-21T05:53:20.644Z,99.90
2022-11-21T05:55:47.928Z,99.90
2022-11-21T05:58:15.232Z,99.90
2022-11-21T06:00:42.617Z,99.90
2022-11-21T06:03:30.580Z,99.90
2022-11-21T06:06:11.041Z,99.90
2022-11-21T06:08:47.454Z,99.90
2022-11-21T06:11:16.941Z,99.90
2022-11-21T06:13:44.259Z,99.90
2022-11-21T06:16:13.025Z,99.90
2022-11-21T06:18:42.550Z,99.90
2022-11-21T06:21:40.894Z,99.90
2022-11-21T06:24:08.568Z,99.90
2022-11-21T06:26:37.030Z,99.90
2022-11-21T06:29:04.322Z,99.90
2022-11-21T06:31:31.903Z,99.90
2022-11-21T06:33:59.529Z,99.90
2022-11-21T06:36:27.106Z,99.90
2022-11-21T06:38:55.348Z,99.90
2022-11-21T06:41:25.989Z,99.90
2022-11-21T06:43:53.379Z,99.90
2022-11-21T06:46:20.653Z,99.90
2022-11-21T06:48:47.973Z,99.90
2022-11-21T06:51:19.179Z,99.90
2022-11-21T06:53:46.955Z,99.90
2022-11-21T06:56:15.394Z,99.90
2022-11-21T06:58:42.677Z,99.90
2022-11-21T07:01:10.594Z,99.90
2022-11-21T07:03:37.997Z,99.90
2022-11-21T07:06:05.893Z,99.90
2022-11-21T07:08:35.360Z,99.90
2022-11-21T07:11:24.036Z,99.90
2022-11-21T07:13:51.058Z,99.90
2022-11-21T07:16:18.343Z,99.90
2022-11-21T07:18:45.643Z,99.90
2022-11-21T07:21:13.013Z,99.90
2022-11-21T07:23:40.364Z,99.90
2022-11-21T07:26:08.142Z,99.90
2022-11-21T07:28:35.529Z,99.90
2022-11-21T07:31:07.111Z,99.90
2022-11-21T07:33:37.521Z,99.90
2022-11-21T07:36:05.194Z,99.90
2022-11-21T07:38:32.525Z,99.90
2022-11-21T07:40:59.880Z,99.90
2022-11-21T07:43:27.210Z,99.90
2022-11-21T07:45:54.519Z,99.90
2022-11-21T07:48:21.887Z,99.90
2022-11-21T07:50:49.194Z,99.90
2022-11-21T07:53:16.449Z,99.90
2022-11-21T07:55:43.995Z,99.90
2022-11-21T07:58:12.544Z,99.90
2022-11-21T08:00:40.660Z,99.90
2022-11-21T08:03:08.116Z,99.90
2022-11-21T08:05:39.453Z,99.90
2022-11-21T08:08:07.068Z,99.90
2022-11-21T08:10:37.104Z,99.90
2022-11-21T08:13:04.457Z,99.90
2022-11-21T08:15:31.836Z,99.90
2022-11-21T08:17:59.391Z,99.90
2022-11-21T08:20:26.814Z,99.90
2022-11-21T08:22:54.190Z,99.90
2022-11-21T08:25:21.489Z,99.90
2022-11-21T08:27:48.768Z,99.90
2022-11-21T08:30:16.246Z,99.90
2022-11-21T08:32:43.558Z,99.90
2022-11-21T08:35:10.907Z,99.90
2022-11-21T08:37:38.306Z,99.90
2022-11-21T08:40:06.194Z,99.90
2022-11-21T08:42:33.512Z,99.90
2022-11-21T08:45:00.885Z,99.90
2022-11-21T08:47:28.141Z,99.90
2022-11-21T08:49:55.456Z,99.90
2022-11-21T08:52:22.714Z,99.90
2022-11-21T08:54:50.022Z,99.90
2022-11-21T08:57:17.519Z,99.90
2022-11-21T08:59:47.119Z,99.90
2022-11-21T09:02:14.420Z,99.90
2022-11-21T09:04:41.799Z,99.90
2022-11-21T09:07:09.218Z,99.90
2022-11-21T09:09:36.577Z,99.90
2022-11-21T09:12:05.184Z,99.90
2022-11-21T09:14:51.217Z,99.90
2022-11-21T09:17:36.945Z,99.90
2022-11-21T09:20:04.764Z,99.90
2022-11-21T09:22:32.081Z,99.90
2022-11-21T09:24:59.388Z,99.90
2022-11-21T09:27:26.695Z,99.90
2022-11-21T09:29:54.449Z,99.90
2022-11-21T09:32:22.128Z,99.90
2022-11-21T09:34:49.580Z,99.90
2022-11-21T09:37:16.949Z,99.90
2022-11-21T09:39:44.279Z,99.90
2022-11-21T09:42:23.488Z,99.90
2022-11-21T09:45:06.131Z,99.90
2022-11-21T09:47:37.531Z,99.90
2022-11-21T09:50:07.522Z,99.90
2022-11-21T09:52:38.733Z,99.90
2022-11-21T09:55:28.692Z,99.90
2022-11-21T09:57:56.141Z,99.90
2022-11-21T10:00:24.924Z,99.90
2022-11-21T10:02:52.419Z,99.90
2022-11-21T10:05:26.824Z,99.90
2022-11-21T10:07:54.163Z,99.90
2022-11-21T10:10:47.876Z,99.90
2022-11-21T10:13:15.199Z,99.90
2022-11-21T10:16:09.329Z,99.90
2022-11-21T10:18:36.736Z,99.90
2022-11-21T10:21:25.482Z,99.90
2022-11-21T10:24:08.882Z,99.90
2022-11-21T10:27:00.148Z,99.90
2022-11-21T10:29:50.520Z,99.90
2022-11-21T10:32:45.563Z,99.90
2022-11-21T10:35:19.373Z,99.90
2022-11-21T10:37:53.917Z,99.90
2022-11-21T10:40:36.916Z,99.90
2022-11-21T10:43:41.789Z,99.90
2022-11-21T10:46:09.436Z,99.90
2022-11-21T10:48:36.833Z,99.90
2022-11-21T10:51:13.245Z,99.90
2022-11-21T10:54:03.202Z,99.90
2022-11-21T10:56:33.853Z,99.90
2022-11-21T10:59:01.176Z,99.90
2022-11-21T11:01:33.234Z,99.90
2022-11-21T11:06:56.930Z,99.90
2022-11-21T11:09:25.223Z,99.90
2022-11-21T11:11:52.607Z,99.10
2022-11-21T11:14:32.049Z,98.90
2022-11-21T11:16:59.557Z,98.20
2022-11-21T11:19:37.044Z,97.90
2022-11-21T11:22:29.022Z,97.40
2022-11-21T11:25:00.468Z,97.70
2022-11-21T11:27:29.193Z,98.10
2022-11-21T11:29:56.532Z,98.20
2022-11-21T11:32:23.867Z,98.20
2022-11-21T11:34:57.520Z,98.40
2022-11-21T11:37:47.667Z,98.10
2022-11-21T11:40:40.994Z,98.50
2022-11-21T11:43:43.071Z,98.40
2022-11-21T11:46:47.099Z,98.10
2022-11-21T11:49:28.369Z,98.60
2022-11-21T11:51:56.779Z,99.10
2022-11-21T11:54:45.391Z,99.00
2022-11-21T11:57:12.693Z,99.60
2022-11-21T11:59:51.246Z,98.90
2022-11-21T12:02:21.604Z,98.90
2022-11-21T12:05:06.356Z,99.30
2022-11-21T12:11:04.126Z,99.90
2022-11-21T12:13:34.506Z,99.80
2022-11-21T12:16:11.942Z,99.40
2022-11-21T12:18:44.610Z,99.40
2022-11-21T12:21:21.706Z,98.80
2022-11-21T12:23:53.579Z,99.20
2022-11-21T12:26:20.958Z,99.80
2022-11-21T12:29:04.353Z,99.50
2022-11-21T12:31:41.100Z,99.10
2022-11-21T12:34:39.650Z,98.60
2022-11-21T12:37:26.186Z,99.10
2022-11-21T12:40:05.312Z,99.00
2022-11-21T12:43:02.859Z,99.30
2022-11-21T12:45:37.370Z,99.00
2022-11-21T12:48:34.055Z,99.00
2022-11-21T12:51:41.295Z,98.90
2022-11-21T12:54:47.035Z,99.10
2022-11-21T12:57:15.372Z,98.80
2022-11-21T12:59:49.573Z,98.90
2022-11-21T13:02:35.571Z,99.70
2022-11-21T13:05:03.198Z,98.60
2022-11-21T13:07:31.339Z,98.00
2022-11-21T13:09:59.524Z,98.30
2022-11-21T13:12:51.799Z,98.40
2022-11-21T13:15:38.367Z,98.20
2022-11-21T13:18:20.156Z,98.00
2022-11-21T13:20:48.970Z,97.30
2022-11-21T13:23:41.603Z,96.70
2022-11-21T13:26:30.149Z,96.10
2022-11-21T13:29:17.693Z,96.00
2022-11-21T13:31:45.013Z,95.90
2022-11-21T13:34:34.805Z,96.20
2022-11-21T13:37:02.178Z,95.30
2022-11-21T13:39:33.860Z,95.10
2022-11-21T13:42:24.399Z,95.60
2022-11-21T13:44:51.902Z,95.10
2022-11-21T13:47:55.807Z,95.30
2022-11-21T13:50:57.017Z,94.90
2022-11-21T13:53:30.590Z,94.80
2022-11-21T13:56:17.154Z,94.30
2022-11-21T13:58:53.628Z,93.70
2022-11-21T14:01:39.978Z,93.70
2022-11-21T14:04:16.222Z,94.10
2022-11-21T14:06:43.648Z,93.90
2022-11-21T14:09:18.262Z,94.30
2022-11-21T14:11:54.044Z,93.20
2022-11-21T14:14:47.954Z,93.40
2022-11-21T14:17:51.504Z,93.20
2022-11-21T14:20:24.687Z,93.70
2022-11-21T14:22:54.942Z,93.50
2022-11-21T14:25:29.359Z,93.70
2022-11-21T14:27:56.780Z,93.60
2022-11-21T14:30:37.575Z,93.50
2022-11-21T14:33:30.682Z,94.20
2022-11-21T14:36:04.280Z,94.20
2022-11-21T14:39:13.929Z,94.60
2022-11-21T14:41:39.424Z,94.80
2022-11-21T14:44:07.685Z,95.30
2022-11-21T14:46:36.703Z,95.80
2022-11-21T14:49:16.665Z,95.90
2022-11-21T14:51:54.264Z,95.90
2022-11-21T14:55:13.430Z,96.10
2022-11-21T14:57:41.241Z,96.20
2022-11-21T15:00:09.932Z,96.80
2022-11-21T15:02:37.250Z,96.90
2022-11-21T15:05:06.503Z,97.40
2022-11-21T15:07:44.084Z,97.80
2022-11-21T15:10:29.712Z,97.70
2022-11-21T15:13:03.455Z,98.00
2022-11-21T15:15:31.861Z,98.10
2022-11-21T15:18:26.353Z,98.50
2022-11-21T15:20:48.893Z,99.10
2022-11-21T15:23:32.009Z,99.20
2022-11-21T15:26:01.457Z,99.20
2022-11-21T15:28:29.713Z,99.90
2022-11-21T15:31:19.449Z,99.90
2022-11-21T15:37:01.442Z,99.90
2022-11-21T15:39:28.749Z,99.90
2022-11-21T15:41:56.011Z,99.90
2022-11-21T15:44:23.417Z,99.90
2022-11-21T15:46:52.401Z,99.90
2022-11-21T15:49:32.381Z,99.90
2022-11-21T15:52:09.610Z,99.90
2022-11-21T15:54:38.208Z,99.90
2022-11-21T15:57:05.509Z,99.90
2022-11-21T15:59:32.971Z,99.90
2022-11-21T16:02:00.301Z,99.90
2022-11-21T16:04:27.634Z,99.90
2022-11-21T16:06:55.162Z,99.90
2022-11-21T16:09:22.494Z,99.90
2022-11-21T16:11:50.319Z,99.90
2022-11-21T16:14:20.770Z,99.90
2022-11-21T16:16:48.153Z,99.90
2022-11-21T16:19:15.754Z,99.90
2022-11-21T16:21:43.132Z,99.90
2022-11-21T16:24:10.474Z,99.90
2022-11-21T16:26:37.854Z,99.90
2022-11-21T16:29:05.745Z,99.90
2022-11-21T16:31:33.377Z,99.90
2022-11-21T16:34:00.905Z,99.90
2022-11-21T16:36:31.768Z,99.90
2022-11-21T16:39:07.737Z,99.90
2022-11-21T16:41:36.516Z,99.90
2022-11-21T16:44:03.953Z,99.90
2022-11-21T16:46:31.258Z,99.90
2022-11-21T16:49:00.411Z,99.90
2022-11-21T16:51:28.082Z,99.90
2022-11-21T16:53:55.480Z,99.90
2022-11-21T16:56:22.830Z,99.90
2022-11-21T16:58:50.142Z,99.90
2022-11-21T17:01:22.086Z,99.90
2022-11-21T17:03:49.519Z,99.90
2022-11-21T17:06:21.640Z,99.90
2022-11-21T17:08:49.028Z,99.90
2022-11-21T17:11:17.959Z,99.90
2022-11-21T17:13:47.205Z,99.90
2022-11-21T17:16:15.379Z,99.90
2022-11-21T17:18:42.958Z,99.90
2022-11-21T17:21:12.938Z,99.90
2022-11-21T17:23:41.349Z,99.90
2022-11-21T17:26:10.132Z,99.90
2022-11-21T17:28:42.322Z,99.90
2022-11-21T17:31:14.348Z,99.90
2022-11-21T17:33:42.407Z,99.90
2022-11-21T17:36:13.740Z,99.90
2022-11-21T17:38:42.507Z,99.90
2022-11-21T17:41:12.894Z,99.90
2022-11-21T17:43:40.474Z,99.90
2022-11-21T17:46:11.002Z,99.90
2022-11-21T17:48:38.473Z,99.90
2022-11-21T17:51:16.846Z,99.90
2022-11-21T17:53:46.968Z,99.90
2022-11-21T17:56:24.708Z,99.90
2022-11-21T17:58:52.156Z,99.90
2022-11-21T18:01:20.107Z,99.90
2022-11-21T18:03:48.191Z,99.90
2022-11-21T18:06:16.426Z,99.90
2022-11-21T18:08:45.172Z,99.90
2022-11-21T18:11:14.380Z,99.90
2022-11-21T18:13:41.887Z,99.90
2022-11-21T18:16:13.829Z,99.90
2022-11-21T18:18:41.092Z,99.90
2022-11-21T18:21:13.397Z,99.90
2022-11-21T18:23:40.819Z,99.90
2022-11-21T18:26:24.768Z,99.90
2022-11-21T18:29:13.483Z,99.90
2022-11-21T18:31:42.989Z,99.90
2022-11-21T18:34:10.637Z,99.90
2022-11-21T18:36:37.980Z,99.90
2022-11-21T18:39:12.324Z,99.90
2022-11-21T18:41:42.069Z,99.90
2022-11-21T18:44:09.988Z,99.90
2022-11-21T18:46:38.394Z,99.90
2022-11-21T18:49:07.686Z,99.90
2022-11-21T18:51:35.936Z,99.90
2022-11-21T18:54:08.386Z,99.90
2022-11-21T18:56:36.982Z,99.90
2022-11-21T18:59:05.996Z,99.90
2022-11-21T19:01:33.997Z,99.90
2022-11-21T19:04:01.765Z,99.90
2022-11-21T19:06:29.203Z,99.90
2022-11-21T19:08:57.435Z,99.90
2022-11-21T19:11:26.381Z,99.90
2022-11-21T19:13:54.046Z,99.90
2022-11-21T19:16:24.574Z,99.90
2022-11-21T19:21:41.549Z,99.90
2022-11-21T19:24:15.579Z,99.90
2022-11-21T19:26:42.870Z,99.90
2022-11-21T19:29:10.558Z,99.90
2022-11-21T19:31:44.139Z,99.90
2022-11-21T19:34:13.530Z,99.90
2022-11-21T19:36:40.871Z,99.90
2022-11-21T19:39:08.932Z,99.90
2022-11-21T19:41:36.418Z,99.90
2022-11-21T19:44:03.849Z,99.90
2022-11-21T19:46:33.155Z,99.90
2022-11-21T19:49:00.635Z,99.90
2022-11-21T19:51:32.646Z,99.90
2022-11-21T19:54:02.155Z,99.90
2022-11-21T19:56:29.518Z,99.90
2022-11-21T19:58:56.954Z,99.90
2022-11-21T20:01:25.759Z,99.90
2022-11-21T20:03:57.695Z,99.90
2022-11-21T20:06:39.058Z,99.90
2022-11-21T20:09:11.090Z,99.90
2022-11-21T20:11:42.313Z,99.90
2022-11-21T20:14:09.748Z,99.90
2022-11-21T20:16:38.573Z,99.90
2022-11-21T20:19:07.616Z,99.90
2022-11-21T20:21:35.085Z,99.90
2022-11-21T20:24:02.814Z,99.90
2022-11-21T20:26:30.142Z,99.90
2022-11-21T20:28:57.592Z,99.90
2022-11-21T20:31:29.150Z,99.90
2022-11-21T20:33:58.237Z,99.90
2022-11-21T20:36:26.834Z,99.90
2022-11-21T20:39:02.317Z,99.90
2022-11-21T20:41:31.377Z,99.90
2022-11-21T20:45:07.096Z,99.90
2022-11-21T20:46:47.439Z,99.90
2022-11-21T20:49:14.778Z,99.90
2022-11-21T20:54:31.034Z,99.90
2022-11-21T20:56:58.556Z,99.90
2022-11-21T20:59:26.448Z,99.90
2022-11-21T21:01:53.928Z,99.90
2022-11-21T21:04:21.308Z,99.90
2022-11-21T21:06:48.605Z,99.90
2022-11-21T21:09:15.960Z,99.90
2022-11-21T21:11:52.511Z,99.90
2022-11-21T21:14:21.594Z,99.90
2022-11-21T21:16:49.231Z,99.90
2022-11-21T21:19:16.630Z,99.90
2022-11-21T21:21:43.937Z,99.90
2022-11-21T21:24:11.518Z,99.90
2022-11-21T21:26:43.055Z,99.90
2022-11-21T21:29:12.202Z,99.90
2022-11-21T21:31:42.676Z,99.90
2022-11-21T21:34:12.883Z,99.90
2022-11-21T21:36:40.179Z,99.90
2022-11-21T21:39:07.563Z,99.90
2022-11-21T21:41:35.757Z,99.90
2022-11-21T21:44:03.063Z,99.90
2022-11-21T21:46:30.391Z,99.90
2022-11-21T21:48:57.951Z,99.90
2022-11-21T21:51:26.569Z,99.90
2022-11-21T21:53:54.440Z,99.90
2022-11-21T21:56:22.565Z,99.90
2022-11-21T21:58:50.069Z,99.90
2022-11-21T22:01:22.574Z,99.90
2022-11-21T22:03:52.951Z,99.90
2022-11-21T22:06:20.290Z,99.90
2022-11-21T22:08:48.028Z,99.90
2022-11-21T22:11:26.046Z,99.90
2022-11-21T22:14:01.164Z,99.90
2022-11-21T22:16:28.673Z,99.90
2022-11-21T22:18:56.432Z,99.90
2022-11-21T22:21:29.657Z,99.90
2022-11-21T22:24:23.485Z,99.90
2022-11-21T22:26:45.662Z,99.90
2022-11-21T22:29:12.966Z,99.90
2022-11-21T22:31:40.283Z,99.90
2022-11-21T22:34:08.394Z,99.90
2022-11-21T22:36:35.703Z,99.90
2022-11-21T22:39:02.991Z,99.90
2022-11-21T22:41:30.429Z,99.90
2022-11-21T22:43:58.701Z,99.90
2022-11-21T22:46:27.249Z,99.90
2022-11-21T22:48:54.872Z,99.90
2022-11-21T22:51:26.911Z,99.90
2022-11-21T22:53:54.218Z,99.90
2022-11-21T22:56:22.817Z,99.90
2022-11-21T22:58:50.132Z,99.90
2022-11-21T23:01:22.357Z,99.90
2022-11-21T23:03:49.954Z,99.90
2022-11-21T23:06:18.995Z,99.90
2022-11-21T23:08:46.538Z,99.90
2022-11-21T23:11:18.570Z,99.90
2022-11-21T23:13:46.598Z,99.90
2022-11-21T23:16:14.524Z,99.90
2022-11-21T23:18:42.069Z,99.90
2022-11-21T23:21:10.040Z,99.90
2022-11-21T23:23:37.353Z,99.90
2022-11-21T23:26:05.170Z,99.90
2022-11-21T23:28:32.569Z,99.90
2022-11-21T23:30:59.960Z,99.90
2022-11-21T23:33:27.284Z,99.90
2022-11-21T23:35:54.743Z,99.90
2022-11-21T23:38:22.109Z,99.90
2022-11-21T23:40:49.647Z,99.90
2022-11-21T23:43:17.266Z,99.90
2022-11-21T23:45:45.406Z,99.90
2022-11-21T23:48:12.794Z,99.90
2022-11-21T23:50:40.114Z,99.90
2022-11-21T23:53:07.449Z,99.90
2022-11-21T23:55:34.777Z,99.90
2022-11-21T23:58:02.157Z,99.90
